sensor_id;sensor_type;location;lat;lon;timestamp;P1;durP1;ratioP1;P2;durP2;ratioP2
15216;SDS011;7711;46.634;14.318;2022-09-09T00:01:13;5.13;;;2.53;;
15216;SDS011;7711;46.634;14.318;2022-09-09T00:03:53;5.18;;;2.90;;
15216;SDS011;7711;46.634;14.318;2022-09-09T00:06:24;3.72;;;2.40;;
15216;SDS011;7711;46.634;14.318;2022-09-09T00:08:58;4.50;;;2.78;;
15216;SDS011;7711;46.634;14.318;2022-09-09T00:11:34;4.70;;;2.75;;
15216;SDS011;7711;46.634;14.318;2022-09-09T00:14:08;4.38;;;2.80;;
15216;SDS011;7711;46.634;14.318;2022-09-09T00:16:43;6.43;;;3.17;;
15216;SDS011;7711;46.634;14.318;2022-09-09T00:19:18;5.90;;;3.00;;
15216;SDS011;7711;46.634;14.318;2022-09-09T00:21:50;5.45;;;2.80;;
15216;SDS011;7711;46.634;14.318;2022-09-09T00:24:31;7.15;;;2.90;;
15216;SDS011;7711;46.634;14.318;2022-09-09T00:27:08;8.55;;;3.25;;
15216;SDS011;7711;46.634;14.318;2022-09-09T00:29:43;6.30;;;3.05;;
15216;SDS011;7711;46.634;14.318;2022-09-09T00:32:19;3.53;;;2.63;;
15216;SDS011;7711;46.634;14.318;2022-09-09T00:34:48;7.38;;;2.80;;
15216;SDS011;7711;46.634;14.318;2022-09-09T00:37:19;7.20;;;2.90;;
15216;SDS011;7711;46.634;14.318;2022-09-09T00:39:49;3.88;;;2.60;;
15216;SDS011;7711;46.634;14.318;2022-09-09T00:42:23;4.72;;;2.75;;
15216;SDS011;7711;46.634;14.318;2022-09-09T00:44:53;3.57;;;2.53;;
15216;SDS011;7711;46.634;14.318;2022-09-09T00:47:38;4.07;;;2.50;;
15216;SDS011;7711;46.634;14.318;2022-09-09T00:50:16;7.00;;;2.80;;
15216;SDS011;7711;46.634;14.318;2022-09-09T00:53:11;4.13;;;2.50;;
15216;SDS011;7711;46.634;14.318;2022-09-09T00:55:48;4.45;;;2.53;;
15216;SDS011;7711;46.634;14.318;2022-09-09T00:58:19;2.65;;;2.40;;
15216;SDS011;7711;46.634;14.318;2022-09-09T01:00:49;4.78;;;2.50;;
15216;SDS011;7711;46.634;14.318;2022-09-09T01:03:22;4.03;;;2.20;;
15216;SDS011;7711;46.634;14.318;2022-09-09T01:06:01;3.60;;;2.40;;
15216;SDS011;7711;46.634;14.318;2022-09-09T01:08:51;10.32;;;2.85;;
15216;SDS011;7711;46.634;14.318;2022-09-09T01:11:32;4.22;;;2.63;;
15216;SDS011;7711;46.634;14.318;2022-09-09T01:14:11;3.80;;;2.28;;
15216;SDS011;7711;46.634;14.318;2022-09-09T01:16:46;6.75;;;2.42;;
15216;SDS011;7711;46.634;14.318;2022-09-09T01:19:16;5.03;;;3.00;;
15216;SDS011;7711;46.634;14.318;2022-09-09T01:21:50;3.45;;;2.55;;
15216;SDS011;7711;46.634;14.318;2022-09-09T01:24:25;4.57;;;2.55;;
15216;SDS011;7711;46.634;14.318;2022-09-09T01:26:59;3.38;;;2.67;;
15216;SDS011;7711;46.634;14.318;2022-09-09T01:29:28;4.45;;;2.90;;
15216;SDS011;7711;46.634;14.318;2022-09-09T01:31:57;6.00;;;2.85;;
15216;SDS011;7711;46.634;14.318;2022-09-09T01:34:27;7.30;;;2.50;;
15216;SDS011;7711;46.634;14.318;2022-09-09T01:36:58;5.95;;;3.15;;
15216;SDS011;7711;46.634;14.318;2022-09-09T01:39:29;3.42;;;2.20;;
15216;SDS011;7711;46.634;14.318;2022-09-09T01:41:57;4.20;;;1.90;;
15216;SDS011;7711;46.634;14.318;2022-09-09T01:44:27;3.45;;;1.90;;
15216;SDS011;7711;46.634;14.318;2022-09-09T01:46:56;2.05;;;1.80;;
15216;SDS011;7711;46.634;14.318;2022-09-09T01:49:23;2.03;;;1.83;;
15216;SDS011;7711;46.634;14.318;2022-09-09T01:51:51;2.80;;;1.77;;
15216;SDS011;7711;46.634;14.318;2022-09-09T01:54:21;2.72;;;1.90;;
15216;SDS011;7711;46.634;14.318;2022-09-09T01:56:53;2.22;;;1.80;;
15216;SDS011;7711;46.634;14.318;2022-09-09T01:59:35;4.78;;;1.80;;
15216;SDS011;7711;46.634;14.318;2022-09-09T02:02:13;2.53;;;2.00;;
15216;SDS011;7711;46.634;14.318;2022-09-09T02:04:45;2.97;;;1.80;;
15216;SDS011;7711;46.634;14.318;2022-09-09T02:07:19;2.83;;;1.80;;
15216;SDS011;7711;46.634;14.318;2022-09-09T02:09:58;4.93;;;1.93;;
15216;SDS011;7711;46.634;14.318;2022-09-09T02:12:28;4.20;;;1.70;;
15216;SDS011;7711;46.634;14.318;2022-09-09T02:15:07;5.15;;;2.30;;
15216;SDS011;7711;46.634;14.318;2022-09-09T02:17:43;4.50;;;1.98;;
15216;SDS011;7711;46.634;14.318;2022-09-09T02:20:13;4.93;;;2.08;;
15216;SDS011;7711;46.634;14.318;2022-09-09T02:22:42;5.45;;;1.90;;
15216;SDS011;7711;46.634;14.318;2022-09-09T02:25:13;2.88;;;2.00;;
15216;SDS011;7711;46.634;14.318;2022-09-09T02:27:44;4.15;;;2.00;;
15216;SDS011;7711;46.634;14.318;2022-09-09T02:30:15;5.80;;;2.30;;
15216;SDS011;7711;46.634;14.318;2022-09-09T02:32:43;3.22;;;1.85;;
15216;SDS011;7711;46.634;14.318;2022-09-09T02:35:12;3.95;;;1.90;;
15216;SDS011;7711;46.634;14.318;2022-09-09T02:37:44;3.80;;;2.10;;
15216;SDS011;7711;46.634;14.318;2022-09-09T02:40:12;7.53;;;2.00;;
15216;SDS011;7711;46.634;14.318;2022-09-09T02:42:41;5.70;;;1.80;;
15216;SDS011;7711;46.634;14.318;2022-09-09T02:45:10;4.10;;;2.20;;
15216;SDS011;7711;46.634;14.318;2022-09-09T02:47:41;4.72;;;2.10;;
15216;SDS011;7711;46.634;14.318;2022-09-09T02:50:14;4.30;;;1.88;;
15216;SDS011;7711;46.634;14.318;2022-09-09T02:52:55;4.30;;;2.20;;
15216;SDS011;7711;46.634;14.318;2022-09-09T02:55:36;3.13;;;2.10;;
15216;SDS011;7711;46.634;14.318;2022-09-09T02:58:06;2.92;;;2.25;;
15216;SDS011;7711;46.634;14.318;2022-09-09T03:00:36;5.95;;;2.42;;
15216;SDS011;7711;46.634;14.318;2022-09-09T03:03:07;2.70;;;1.83;;
15216;SDS011;7711;46.634;14.318;2022-09-09T03:05:35;5.10;;;2.10;;
15216;SDS011;7711;46.634;14.318;2022-09-09T03:08:02;4.70;;;2.28;;
15216;SDS011;7711;46.634;14.318;2022-09-09T03:10:30;2.42;;;2.22;;
15216;SDS011;7711;46.634;14.318;2022-09-09T03:12:58;5.75;;;2.58;;
15216;SDS011;7711;46.634;14.318;2022-09-09T03:15:25;3.20;;;2.15;;
15216;SDS011;7711;46.634;14.318;2022-09-09T03:17:56;4.43;;;2.40;;
15216;SDS011;7711;46.634;14.318;2022-09-09T03:20:25;4.13;;;2.03;;
15216;SDS011;7711;46.634;14.318;2022-09-09T03:22:52;7.15;;;2.22;;
15216;SDS011;7711;46.634;14.318;2022-09-09T03:25:20;4.18;;;2.50;;
15216;SDS011;7711;46.634;14.318;2022-09-09T03:27:49;6.32;;;2.80;;
15216;SDS011;7711;46.634;14.318;2022-09-09T03:30:18;6.63;;;2.30;;
15216;SDS011;7711;46.634;14.318;2022-09-09T03:32:45;3.22;;;2.10;;
15216;SDS011;7711;46.634;14.318;2022-09-09T03:35:13;3.60;;;2.20;;
15216;SDS011;7711;46.634;14.318;2022-09-09T03:37:42;4.55;;;2.28;;
15216;SDS011;7711;46.634;14.318;2022-09-09T03:40:10;3.05;;;1.98;;
15216;SDS011;7711;46.634;14.318;2022-09-09T03:42:37;6.22;;;2.30;;
15216;SDS011;7711;46.634;14.318;2022-09-09T03:45:06;6.97;;;2.10;;
15216;SDS011;7711;46.634;14.318;2022-09-09T03:47:34;6.30;;;2.25;;
15216;SDS011;7711;46.634;14.318;2022-09-09T03:50:01;6.10;;;2.40;;
15216;SDS011;7711;46.634;14.318;2022-09-09T03:52:34;2.53;;;2.23;;
15216;SDS011;7711;46.634;14.318;2022-09-09T03:55:03;7.65;;;2.40;;
15216;SDS011;7711;46.634;14.318;2022-09-09T03:57:31;3.60;;;2.70;;
15216;SDS011;7711;46.634;14.318;2022-09-09T04:00:00;3.53;;;2.43;;
15216;SDS011;7711;46.634;14.318;2022-09-09T04:02:28;4.35;;;1.95;;
15216;SDS011;7711;46.634;14.318;2022-09-09T04:04:55;4.93;;;2.10;;
15216;SDS011;7711;46.634;14.318;2022-09-09T04:07:22;5.17;;;1.90;;
15216;SDS011;7711;46.634;14.318;2022-09-09T04:09:50;6.47;;;2.57;;
15216;SDS011;7711;46.634;14.318;2022-09-09T04:12:21;4.85;;;2.22;;
15216;SDS011;7711;46.634;14.318;2022-09-09T04:14:48;4.57;;;2.10;;
15216;SDS011;7711;46.634;14.318;2022-09-09T04:17:15;2.67;;;2.13;;
15216;SDS011;7711;46.634;14.318;2022-09-09T04:19:42;5.03;;;2.40;;
15216;SDS011;7711;46.634;14.318;2022-09-09T04:22:10;4.70;;;2.30;;
15216;SDS011;7711;46.634;14.318;2022-09-09T04:24:37;6.03;;;2.33;;
15216;SDS011;7711;46.634;14.318;2022-09-09T04:27:04;5.50;;;1.98;;
15216;SDS011;7711;46.634;14.318;2022-09-09T04:29:33;4.28;;;2.15;;
15216;SDS011;7711;46.634;14.318;2022-09-09T04:32:00;4.47;;;2.38;;
15216;SDS011;7711;46.634;14.318;2022-09-09T04:34:27;3.90;;;2.45;;
15216;SDS011;7711;46.634;14.318;2022-09-09T04:36:55;3.22;;;2.22;;
15216;SDS011;7711;46.634;14.318;2022-09-09T04:39:23;3.35;;;2.50;;
15216;SDS011;7711;46.634;14.318;2022-09-09T04:41:50;6.20;;;2.30;;
15216;SDS011;7711;46.634;14.318;2022-09-09T04:44:18;4.40;;;2.30;;
15216;SDS011;7711;46.634;14.318;2022-09-09T04:46:47;2.80;;;2.45;;
15216;SDS011;7711;46.634;14.318;2022-09-09T04:49:14;5.80;;;2.42;;
15216;SDS011;7711;46.634;14.318;2022-09-09T04:51:41;6.80;;;2.90;;
15216;SDS011;7711;46.634;14.318;2022-09-09T04:54:08;8.48;;;2.95;;
15216;SDS011;7711;46.634;14.318;2022-09-09T04:56:35;4.13;;;2.80;;
15216;SDS011;7711;46.634;14.318;2022-09-09T04:59:03;5.07;;;2.50;;
15216;SDS011;7711;46.634;14.318;2022-09-09T05:01:30;4.57;;;2.78;;
15216;SDS011;7711;46.634;14.318;2022-09-09T05:04:00;5.40;;;2.60;;
15216;SDS011;7711;46.634;14.318;2022-09-09T05:06:27;5.60;;;2.50;;
15216;SDS011;7711;46.634;14.318;2022-09-09T05:08:56;22.80;;;4.13;;
15216;SDS011;7711;46.634;14.318;2022-09-09T05:11:24;11.40;;;2.70;;
15216;SDS011;7711;46.634;14.318;2022-09-09T05:13:53;7.88;;;1.88;;
15216;SDS011;7711;46.634;14.318;2022-09-09T05:16:21;5.68;;;2.10;;
15216;SDS011;7711;46.634;14.318;2022-09-09T05:18:49;3.92;;;2.20;;
15216;SDS011;7711;46.634;14.318;2022-09-09T05:21:18;5.75;;;2.13;;
15216;SDS011;7711;46.634;14.318;2022-09-09T05:23:46;6.75;;;2.30;;
15216;SDS011;7711;46.634;14.318;2022-09-09T05:26:15;4.87;;;2.60;;
15216;SDS011;7711;46.634;14.318;2022-09-09T05:28:43;4.75;;;2.22;;
15216;SDS011;7711;46.634;14.318;2022-09-09T05:31:13;9.90;;;2.22;;
15216;SDS011;7711;46.634;14.318;2022-09-09T05:33:42;3.42;;;2.40;;
15216;SDS011;7711;46.634;14.318;2022-09-09T05:36:11;5.43;;;2.33;;
15216;SDS011;7711;46.634;14.318;2022-09-09T05:38:41;6.63;;;2.30;;
15216;SDS011;7711;46.634;14.318;2022-09-09T05:41:10;11.50;;;2.60;;
15216;SDS011;7711;46.634;14.318;2022-09-09T05:43:40;2.97;;;1.73;;
15216;SDS011;7711;46.634;14.318;2022-09-09T05:46:10;4.07;;;2.10;;
15216;SDS011;7711;46.634;14.318;2022-09-09T05:48:39;5.53;;;2.03;;
15216;SDS011;7711;46.634;14.318;2022-09-09T05:51:08;4.82;;;2.22;;
15216;SDS011;7711;46.634;14.318;2022-09-09T05:53:37;4.07;;;2.08;;
15216;SDS011;7711;46.634;14.318;2022-09-09T05:56:07;4.38;;;2.10;;
15216;SDS011;7711;46.634;14.318;2022-09-09T05:58:36;8.10;;;2.78;;
15216;SDS011;7711;46.634;14.318;2022-09-09T06:01:04;6.55;;;2.47;;
15216;SDS011;7711;46.634;14.318;2022-09-09T06:03:33;6.47;;;2.70;;
15216;SDS011;7711;46.634;14.318;2022-09-09T06:06:01;9.63;;;2.53;;
15216;SDS011;7711;46.634;14.318;2022-09-09T06:08:30;9.02;;;3.20;;
15216;SDS011;7711;46.634;14.318;2022-09-09T06:11:00;5.28;;;2.72;;
15216;SDS011;7711;46.634;14.318;2022-09-09T06:13:30;6.88;;;3.00;;
15216;SDS011;7711;46.634;14.318;2022-09-09T06:15:57;10.60;;;3.50;;
15216;SDS011;7711;46.634;14.318;2022-09-09T06:18:25;7.35;;;3.88;;
15216;SDS011;7711;46.634;14.318;2022-09-09T06:20:55;9.82;;;3.70;;
15216;SDS011;7711;46.634;14.318;2022-09-09T06:23:23;8.25;;;3.70;;
15216;SDS011;7711;46.634;14.318;2022-09-09T06:25:51;8.93;;;4.03;;
15216;SDS011;7711;46.634;14.318;2022-09-09T06:28:18;7.18;;;3.78;;
15216;SDS011;7711;46.634;14.318;2022-09-09T06:30:47;4.25;;;3.20;;
15216;SDS011;7711;46.634;14.318;2022-09-09T06:33:14;8.65;;;3.80;;
15216;SDS011;7711;46.634;14.318;2022-09-09T06:35:41;7.00;;;3.55;;
15216;SDS011;7711;46.634;14.318;2022-09-09T06:38:08;7.97;;;3.28;;
15216;SDS011;7711;46.634;14.318;2022-09-09T06:40:35;8.32;;;2.90;;
15216;SDS011;7711;46.634;14.318;2022-09-09T06:43:02;8.98;;;2.50;;
15216;SDS011;7711;46.634;14.318;2022-09-09T06:45:30;4.97;;;2.30;;
15216;SDS011;7711;46.634;14.318;2022-09-09T06:47:58;5.88;;;2.10;;
15216;SDS011;7711;46.634;14.318;2022-09-09T06:50:25;4.20;;;2.60;;
15216;SDS011;7711;46.634;14.318;2022-09-09T06:52:52;6.95;;;3.15;;
15216;SDS011;7711;46.634;14.318;2022-09-09T06:55:20;10.18;;;3.35;;
15216;SDS011;7711;46.634;14.318;2022-09-09T06:57:46;6.63;;;3.42;;
15216;SDS011;7711;46.634;14.318;2022-09-09T07:00:17;4.55;;;3.58;;
15216;SDS011;7711;46.634;14.318;2022-09-09T07:02:44;9.40;;;3.67;;
15216;SDS011;7711;46.634;14.318;2022-09-09T07:05:13;4.82;;;3.90;;
15216;SDS011;7711;46.634;14.318;2022-09-09T07:07:40;11.63;;;3.63;;
15216;SDS011;7711;46.634;14.318;2022-09-09T07:10:08;5.93;;;3.70;;
15216;SDS011;7711;46.634;14.318;2022-09-09T07:12:35;9.60;;;3.13;;
15216;SDS011;7711;46.634;14.318;2022-09-09T07:15:02;7.03;;;3.10;;
15216;SDS011;7711;46.634;14.318;2022-09-09T07:17:30;9.40;;;3.42;;
15216;SDS011;7711;46.634;14.318;2022-09-09T07:19:57;5.13;;;3.20;;
15216;SDS011;7711;46.634;14.318;2022-09-09T07:22:26;6.70;;;3.67;;
15216;SDS011;7711;46.634;14.318;2022-09-09T07:24:54;4.20;;;2.95;;
15216;SDS011;7711;46.634;14.318;2022-09-09T07:27:21;4.40;;;3.28;;
15216;SDS011;7711;46.634;14.318;2022-09-09T07:29:48;5.18;;;3.13;;
15216;SDS011;7711;46.634;14.318;2022-09-09T07:32:15;3.50;;;2.50;;
15216;SDS011;7711;46.634;14.318;2022-09-09T07:34:42;4.78;;;2.35;;
15216;SDS011;7711;46.634;14.318;2022-09-09T07:37:10;9.95;;;3.17;;
15216;SDS011;7711;46.634;14.318;2022-09-09T07:39:40;9.00;;;3.67;;
15216;SDS011;7711;46.634;14.318;2022-09-09T07:42:07;12.27;;;2.90;;
15216;SDS011;7711;46.634;14.318;2022-09-09T07:44:34;5.53;;;2.53;;
15216;SDS011;7711;46.634;14.318;2022-09-09T07:47:02;5.13;;;2.57;;
15216;SDS011;7711;46.634;14.318;2022-09-09T07:49:29;4.40;;;2.10;;
15216;SDS011;7711;46.634;14.318;2022-09-09T07:51:56;5.27;;;2.40;;
15216;SDS011;7711;46.634;14.318;2022-09-09T07:54:24;6.75;;;2.55;;
15216;SDS011;7711;46.634;14.318;2022-09-09T07:56:52;4.28;;;2.40;;
15216;SDS011;7711;46.634;14.318;2022-09-09T07:59:19;6.28;;;2.60;;
15216;SDS011;7711;46.634;14.318;2022-09-09T08:01:47;5.07;;;2.47;;
15216;SDS011;7711;46.634;14.318;2022-09-09T08:04:19;5.38;;;2.42;;
15216;SDS011;7711;46.634;14.318;2022-09-09T08:06:48;5.18;;;2.15;;
15216;SDS011;7711;46.634;14.318;2022-09-09T08:09:18;6.05;;;2.55;;
15216;SDS011;7711;46.634;14.318;2022-09-09T08:11:45;2.70;;;2.15;;
15216;SDS011;7711;46.634;14.318;2022-09-09T08:14:14;3.10;;;2.10;;
15216;SDS011;7711;46.634;14.318;2022-09-09T08:16:42;8.38;;;2.72;;
15216;SDS011;7711;46.634;14.318;2022-09-09T08:19:11;8.82;;;2.75;;
15216;SDS011;7711;46.634;14.318;2022-09-09T08:21:40;4.18;;;2.53;;
15216;SDS011;7711;46.634;14.318;2022-09-09T08:24:09;2.13;;;1.92;;
15216;SDS011;7711;46.634;14.318;2022-09-09T08:26:37;2.95;;;2.10;;
15216;SDS011;7711;46.634;14.318;2022-09-09T08:29:07;2.20;;;1.90;;
15216;SDS011;7711;46.634;14.318;2022-09-09T08:31:37;3.00;;;2.33;;
15216;SDS011;7711;46.634;14.318;2022-09-09T08:34:06;3.53;;;2.23;;
15216;SDS011;7711;46.634;14.318;2022-09-09T08:36:35;3.55;;;2.60;;
15216;SDS011;7711;46.634;14.318;2022-09-09T08:39:04;8.55;;;3.08;;
15216;SDS011;7711;46.634;14.318;2022-09-09T08:41:39;7.32;;;2.53;;
15216;SDS011;7711;46.634;14.318;2022-09-09T08:44:21;4.68;;;2.90;;
15216;SDS011;7711;46.634;14.318;2022-09-09T08:46:59;5.05;;;2.58;;
15216;SDS011;7711;46.634;14.318;2022-09-09T08:49:39;2.90;;;2.50;;
15216;SDS011;7711;46.634;14.318;2022-09-09T08:52:23;3.50;;;2.30;;
15216;SDS011;7711;46.634;14.318;2022-09-09T08:54:54;3.85;;;2.60;;
15216;SDS011;7711;46.634;14.318;2022-09-09T08:57:25;4.35;;;2.47;;
15216;SDS011;7711;46.634;14.318;2022-09-09T08:59:55;17.33;;;4.65;;
15216;SDS011;7711;46.634;14.318;2022-09-09T09:02:24;6.05;;;2.72;;
15216;SDS011;7711;46.634;14.318;2022-09-09T09:05:02;8.00;;;2.88;;
15216;SDS011;7711;46.634;14.318;2022-09-09T09:07:45;5.32;;;3.13;;
15216;SDS011;7711;46.634;14.318;2022-09-09T09:10:34;8.25;;;2.70;;
15216;SDS011;7711;46.634;14.318;2022-09-09T09:13:12;7.55;;;2.80;;
15216;SDS011;7711;46.634;14.318;2022-09-09T09:15:42;7.43;;;2.80;;
15216;SDS011;7711;46.634;14.318;2022-09-09T09:18:17;6.05;;;2.63;;
15216;SDS011;7711;46.634;14.318;2022-09-09T09:20:47;4.68;;;2.30;;
15216;SDS011;7711;46.634;14.318;2022-09-09T09:23:21;6.15;;;2.80;;
15216;SDS011;7711;46.634;14.318;2022-09-09T09:25:50;3.92;;;2.40;;
15216;SDS011;7711;46.634;14.318;2022-09-09T09:28:25;2.70;;;2.15;;
15216;SDS011;7711;46.634;14.318;2022-09-09T09:30:57;3.47;;;1.90;;
15216;SDS011;7711;46.634;14.318;2022-09-09T09:33:31;3.72;;;1.90;;
15216;SDS011;7711;46.634;14.318;2022-09-09T09:36:06;5.30;;;2.42;;
15216;SDS011;7711;46.634;14.318;2022-09-09T09:38:35;2.45;;;2.20;;
15216;SDS011;7711;46.634;14.318;2022-09-09T09:41:04;2.88;;;2.10;;
15216;SDS011;7711;46.634;14.318;2022-09-09T09:43:33;6.40;;;2.30;;
15216;SDS011;7711;46.634;14.318;2022-09-09T09:46:03;3.22;;;2.17;;
15216;SDS011;7711;46.634;14.318;2022-09-09T09:48:32;7.28;;;2.60;;
15216;SDS011;7711;46.634;14.318;2022-09-09T09:51:01;5.53;;;2.60;;
15216;SDS011;7711;46.634;14.318;2022-09-09T09:53:34;4.85;;;2.70;;
15216;SDS011;7711;46.634;14.318;2022-09-09T09:56:05;5.13;;;2.90;;
15216;SDS011;7711;46.634;14.318;2022-09-09T09:58:37;3.00;;;2.40;;
15216;SDS011;7711;46.634;14.318;2022-09-09T10:01:20;3.25;;;2.35;;
15216;SDS011;7711;46.634;14.318;2022-09-09T10:03:53;3.28;;;2.25;;
15216;SDS011;7711;46.634;14.318;2022-09-09T10:06:30;3.30;;;2.53;;
15216;SDS011;7711;46.634;14.318;2022-09-09T10:08:58;5.30;;;2.47;;
15216;SDS011;7711;46.634;14.318;2022-09-09T10:11:35;3.30;;;2.50;;
15216;SDS011;7711;46.634;14.318;2022-09-09T10:14:13;3.65;;;2.55;;
15216;SDS011;7711;46.634;14.318;2022-09-09T10:16:49;2.60;;;2.25;;
15216;SDS011;7711;46.634;14.318;2022-09-09T10:19:31;2.42;;;2.08;;
15216;SDS011;7711;46.634;14.318;2022-09-09T10:27:49;3.28;;;2.53;;
15216;SDS011;7711;46.634;14.318;2022-09-09T10:30:30;3.17;;;2.50;;
15216;SDS011;7711;46.634;14.318;2022-09-09T10:33:08;3.17;;;2.55;;
15216;SDS011;7711;46.634;14.318;2022-09-09T10:35:40;3.20;;;2.42;;
15216;SDS011;7711;46.634;14.318;2022-09-09T10:38:17;3.30;;;2.60;;
15216;SDS011;7711;46.634;14.318;2022-09-09T10:41:02;7.03;;;2.90;;
15216;SDS011;7711;46.634;14.318;2022-09-09T10:43:42;3.42;;;2.85;;
15216;SDS011;7711;46.634;14.318;2022-09-09T10:46:25;3.88;;;2.50;;
15216;SDS011;7711;46.634;14.318;2022-09-09T10:49:04;3.28;;;2.55;;
15216;SDS011;7711;46.634;14.318;2022-09-09T10:51:47;4.72;;;2.67;;
15216;SDS011;7711;46.634;14.318;2022-09-09T10:54:28;4.45;;;2.70;;
15216;SDS011;7711;46.634;14.318;2022-09-09T10:57:08;3.40;;;2.58;;
15216;SDS011;7711;46.634;14.318;2022-09-09T10:59:43;4.00;;;2.45;;
15216;SDS011;7711;46.634;14.318;2022-09-09T11:02:16;2.50;;;2.30;;
15216;SDS011;7711;46.634;14.318;2022-09-09T11:04:49;2.45;;;2.25;;
15216;SDS011;7711;46.634;14.318;2022-09-09T11:07:24;2.80;;;2.50;;
15216;SDS011;7711;46.634;14.318;2022-09-09T11:09:56;2.45;;;2.25;;
15216;SDS011;7711;46.634;14.318;2022-09-09T11:12:57;3.90;;;2.60;;
15216;SDS011;7711;46.634;14.318;2022-09-09T11:15:30;2.60;;;2.40;;
15216;SDS011;7711;46.634;14.318;2022-09-09T11:18:04;2.83;;;2.38;;
15216;SDS011;7711;46.634;14.318;2022-09-09T11:20:33;3.58;;;2.63;;
15216;SDS011;7711;46.634;14.318;2022-09-09T11:23:03;3.03;;;2.50;;
15216;SDS011;7711;46.634;14.318;2022-09-09T11:25:38;4.95;;;2.95;;
15216;SDS011;7711;46.634;14.318;2022-09-09T11:28:19;5.07;;;2.80;;
15216;SDS011;7711;46.634;14.318;2022-09-09T11:31:07;2.97;;;2.67;;
15216;SDS011;7711;46.634;14.318;2022-09-09T11:36:44;2.92;;;2.50;;
15216;SDS011;7711;46.634;14.318;2022-09-09T11:39:36;8.85;;;2.90;;
15216;SDS011;7711;46.634;14.318;2022-09-09T11:42:15;3.55;;;2.38;;
15216;SDS011;7711;46.634;14.318;2022-09-09T11:44:45;2.78;;;2.35;;
15216;SDS011;7711;46.634;14.318;2022-09-09T11:47:18;2.50;;;2.30;;
15216;SDS011;7711;46.634;14.318;2022-09-09T11:49:51;3.17;;;2.67;;
15216;SDS011;7711;46.634;14.318;2022-09-09T11:52:21;3.42;;;2.38;;
15216;SDS011;7711;46.634;14.318;2022-09-09T11:54:54;3.78;;;2.20;;
15216;SDS011;7711;46.634;14.318;2022-09-09T11:57:25;2.78;;;2.00;;
15216;SDS011;7711;46.634;14.318;2022-09-09T11:59:58;4.40;;;2.60;;
15216;SDS011;7711;46.634;14.318;2022-09-09T12:02:26;2.70;;;2.50;;
15216;SDS011;7711;46.634;14.318;2022-09-09T12:04:57;2.28;;;2.08;;
15216;SDS011;7711;46.634;14.318;2022-09-09T12:07:32;2.80;;;2.08;;
15216;SDS011;7711;46.634;14.318;2022-09-09T12:10:18;4.35;;;2.10;;
15216;SDS011;7711;46.634;14.318;2022-09-09T12:12:49;2.78;;;2.28;;
15216;SDS011;7711;46.634;14.318;2022-09-09T12:15:18;3.40;;;2.17;;
15216;SDS011;7711;46.634;14.318;2022-09-09T12:17:48;2.45;;;2.03;;
15216;SDS011;7711;46.634;14.318;2022-09-09T12:20:17;4.05;;;2.78;;
15216;SDS011;7711;46.634;14.318;2022-09-09T12:26:03;2.92;;;2.10;;
15216;SDS011;7711;46.634;14.318;2022-09-09T12:28:51;3.80;;;2.78;;
15216;SDS011;7711;46.634;14.318;2022-09-09T12:31:24;2.78;;;2.40;;
15216;SDS011;7711;46.634;14.318;2022-09-09T12:34:02;3.83;;;2.30;;
15216;SDS011;7711;46.634;14.318;2022-09-09T12:36:36;2.42;;;2.13;;
15216;SDS011;7711;46.634;14.318;2022-09-09T12:39:10;2.97;;;2.20;;
15216;SDS011;7711;46.634;14.318;2022-09-09T12:41:52;2.58;;;1.92;;
15216;SDS011;7711;46.634;14.318;2022-09-09T12:44:22;2.50;;;2.28;;
15216;SDS011;7711;46.634;14.318;2022-09-09T12:46:49;3.15;;;2.13;;
15216;SDS011;7711;46.634;14.318;2022-09-09T12:49:24;2.50;;;2.30;;
15216;SDS011;7711;46.634;14.318;2022-09-09T12:51:56;2.55;;;2.20;;
15216;SDS011;7711;46.634;14.318;2022-09-09T12:54:24;3.00;;;2.03;;
15216;SDS011;7711;46.634;14.318;2022-09-09T12:56:52;4.15;;;2.33;;
15216;SDS011;7711;46.634;14.318;2022-09-09T12:59:23;2.40;;;2.20;;
15216;SDS011;7711;46.634;14.318;2022-09-09T13:01:55;6.18;;;2.70;;
15216;SDS011;7711;46.634;14.318;2022-09-09T13:04:23;2.65;;;2.42;;
15216;SDS011;7711;46.634;14.318;2022-09-09T13:06:50;2.50;;;2.30;;
15216;SDS011;7711;46.634;14.318;2022-09-09T13:09:18;2.22;;;2.03;;
15216;SDS011;7711;46.634;14.318;2022-09-09T13:11:46;3.63;;;2.00;;
15216;SDS011;7711;46.634;14.318;2022-09-09T13:14:19;3.08;;;2.25;;
15216;SDS011;7711;46.634;14.318;2022-09-09T13:16:56;2.00;;;1.88;;
15216;SDS011;7711;46.634;14.318;2022-09-09T13:19:25;2.35;;;2.15;;
15216;SDS011;7711;46.634;14.318;2022-09-09T13:21:55;3.45;;;2.20;;
15216;SDS011;7711;46.634;14.318;2022-09-09T13:24:25;2.88;;;2.10;;
15216;SDS011;7711;46.634;14.318;2022-09-09T13:26:56;3.00;;;2.13;;
15216;SDS011;7711;46.634;14.318;2022-09-09T13:29:25;3.70;;;2.15;;
15216;SDS011;7711;46.634;14.318;2022-09-09T13:31:52;2.63;;;2.20;;
15216;SDS011;7711;46.634;14.318;2022-09-09T13:34:27;3.75;;;2.25;;
15216;SDS011;7711;46.634;14.318;2022-09-09T13:36:57;3.50;;;2.00;;
15216;SDS011;7711;46.634;14.318;2022-09-09T13:39:27;2.83;;;1.85;;
15216;SDS011;7711;46.634;14.318;2022-09-09T13:41:56;2.38;;;1.77;;
15216;SDS011;7711;46.634;14.318;2022-09-09T13:44:25;2.03;;;1.70;;
15216;SDS011;7711;46.634;14.318;2022-09-09T13:47:02;2.38;;;1.70;;
15216;SDS011;7711;46.634;14.318;2022-09-09T13:49:31;3.78;;;2.10;;
15216;SDS011;7711;46.634;14.318;2022-09-09T13:52:05;2.17;;;1.90;;
15216;SDS011;7711;46.634;14.318;2022-09-09T13:54:36;2.08;;;1.92;;
15216;SDS011;7711;46.634;14.318;2022-09-09T13:57:04;2.55;;;2.00;;
15216;SDS011;7711;46.634;14.318;2022-09-09T13:59:33;2.35;;;2.15;;
15216;SDS011;7711;46.634;14.318;2022-09-09T14:02:01;2.35;;;2.00;;
15216;SDS011;7711;46.634;14.318;2022-09-09T14:04:29;2.25;;;2.00;;
15216;SDS011;7711;46.634;14.318;2022-09-09T14:06:59;3.47;;;1.90;;
15216;SDS011;7711;46.634;14.318;2022-09-09T14:09:27;2.55;;;2.00;;
15216;SDS011;7711;46.634;14.318;2022-09-09T14:11:54;2.35;;;2.15;;
15216;SDS011;7711;46.634;14.318;2022-09-09T14:14:21;2.70;;;2.47;;
15216;SDS011;7711;46.634;14.318;2022-09-09T14:16:51;2.60;;;2.30;;
15216;SDS011;7711;46.634;14.318;2022-09-09T14:19:19;2.80;;;2.60;;
15216;SDS011;7711;46.634;14.318;2022-09-09T14:21:46;2.75;;;2.50;;
15216;SDS011;7711;46.634;14.318;2022-09-09T14:24:16;2.47;;;2.20;;
15216;SDS011;7711;46.634;14.318;2022-09-09T14:26:43;3.63;;;2.25;;
15216;SDS011;7711;46.634;14.318;2022-09-09T14:29:10;2.90;;;2.20;;
15216;SDS011;7711;46.634;14.318;2022-09-09T14:31:37;2.85;;;2.55;;
15216;SDS011;7711;46.634;14.318;2022-09-09T14:34:06;2.55;;;2.00;;
15216;SDS011;7711;46.634;14.318;2022-09-09T14:36:36;4.15;;;2.30;;
15216;SDS011;7711;46.634;14.318;2022-09-09T14:39:03;3.53;;;2.20;;
15216;SDS011;7711;46.634;14.318;2022-09-09T14:41:30;3.78;;;2.22;;
15216;SDS011;7711;46.634;14.318;2022-09-09T14:43:58;3.63;;;2.30;;
15216;SDS011;7711;46.634;14.318;2022-09-09T14:46:26;3.65;;;2.50;;
15216;SDS011;7711;46.634;14.318;2022-09-09T14:48:53;3.97;;;2.58;;
15216;SDS011;7711;46.634;14.318;2022-09-09T14:51:23;4.65;;;2.45;;
15216;SDS011;7711;46.634;14.318;2022-09-09T14:53:52;6.90;;;2.45;;
15216;SDS011;7711;46.634;14.318;2022-09-09T14:56:21;3.33;;;2.50;;
15216;SDS011;7711;46.634;14.318;2022-09-09T14:58:49;4.90;;;2.47;;
15216;SDS011;7711;46.634;14.318;2022-09-09T15:01:19;4.25;;;2.38;;
15216;SDS011;7711;46.634;14.318;2022-09-09T15:03:48;3.88;;;2.30;;
15216;SDS011;7711;46.634;14.318;2022-09-09T15:06:17;3.20;;;2.42;;
15216;SDS011;7711;46.634;14.318;2022-09-09T15:08:47;3.03;;;2.45;;
15216;SDS011;7711;46.634;14.318;2022-09-09T15:11:17;4.53;;;2.42;;
15216;SDS011;7711;46.634;14.318;2022-09-09T15:13:46;2.95;;;2.38;;
15216;SDS011;7711;46.634;14.318;2022-09-09T15:16:14;2.72;;;2.20;;
15216;SDS011;7711;46.634;14.318;2022-09-09T15:18:42;2.90;;;2.20;;
15216;SDS011;7711;46.634;14.318;2022-09-09T15:21:11;5.15;;;2.58;;
15216;SDS011;7711;46.634;14.318;2022-09-09T15:23:39;4.40;;;2.50;;